createdAt,value
2023-01-25T00:04:38.932Z,14.23
2023-01-25T00:14:41.085Z,13.43
2023-01-25T00:24:44.212Z,14.20
2023-01-25T00:34:47.763Z,13.23
2023-01-25T00:44:49.964Z,12.03
2023-01-25T00:54:52.062Z,15.70
2023-01-25T01:04:56.550Z,15.47
2023-01-25T01:14:59.901Z,14.03
2023-01-25T01:25:02.200Z,14.43
2023-01-25T01:35:04.531Z,14.67
2023-01-25T01:45:44.012Z,15.33
2023-01-25T01:55:49.694Z,16.07
2023-01-25T02:06:01.509Z,15.47
2023-01-25T02:16:05.024Z,16.30
2023-01-25T02:26:07.477Z,16.83
2023-01-25T02:36:10.235Z,16.07
2023-01-25T02:46:28.902Z,19.17
2023-01-25T02:56:32.378Z,17.03
2023-01-25T03:06:35.954Z,16.80
2023-01-25T03:16:38.450Z,15.63
2023-01-25T03:27:01.503Z,17.33
2023-01-25T03:37:31.218Z,16.50
2023-01-25T03:47:34.361Z,16.90
2023-01-25T03:57:37.819Z,16.70
2023-01-25T04:07:42.208Z,16.47
2023-01-25T04:17:45.468Z,18.70
2023-01-25T04:27:55.601Z,18.80
2023-01-25T04:37:59.375Z,16.97
2023-01-25T04:48:10.770Z,17.83
2023-01-25T04:58:19.509Z,18.70
2023-01-25T05:08:22.935Z,17.97
2023-01-25T05:18:42.576Z,18.63
2023-01-25T05:28:52.580Z,18.27
2023-01-25T05:39:01.677Z,17.57
2023-01-25T05:49:06.975Z,15.47
2023-01-25T05:59:11.184Z,13.83
2023-01-25T06:09:13.905Z,15.30
2023-01-25T06:19:17.148Z,16.17
2023-01-25T06:29:38.243Z,20.20
2023-01-25T06:39:40.357Z,19.13
2023-01-25T06:49:42.589Z,18.53
2023-01-25T06:59:44.779Z,18.77
2023-01-25T07:09:46.921Z,16.10
2023-01-25T07:19:49.181Z,19.03
2023-01-25T07:29:51.282Z,17.77
2023-01-25T07:39:53.435Z,18.37
2023-01-25T07:49:55.559Z,17.87
2023-01-25T07:59:57.660Z,20.93
2023-01-25T08:09:59.789Z,18.83
2023-01-25T08:20:02.191Z,18.03
2023-01-25T08:30:04.783Z,23.10
2023-01-25T08:40:07.873Z,21.60
2023-01-25T08:50:11.094Z,26.23
2023-01-25T09:00:14.285Z,24.13
2023-01-25T09:10:16.734Z,24.83
2023-01-25T09:20:18.953Z,23.90
2023-01-25T09:30:23.386Z,26.90
2023-01-25T09:40:34.340Z,25.90
2023-01-25T09:50:51.621Z,25.37
2023-01-25T10:01:05.927Z,24.57
2023-01-25T10:11:29.101Z,20.70
2023-01-25T10:21:35.445Z,26.80
2023-01-25T10:31:44.884Z,26.53
2023-01-25T10:41:51.521Z,24.20
2023-01-25T10:51:53.722Z,26.00
2023-01-25T11:01:57.326Z,29.83
2023-01-25T11:12:03.620Z,25.43
2023-01-25T11:22:19.800Z,101.30
2023-01-25T11:32:22.787Z,26.17
2023-01-25T11:42:32.484Z,26.97
2023-01-25T11:52:52.946Z,29.60
2023-01-25T12:03:08.080Z,31.93
2023-01-25T12:13:30.219Z,24.77
2023-01-25T12:23:40.058Z,33.53
2023-01-25T12:33:46.589Z,38.20
2023-01-25T12:43:52.670Z,23.83
2023-01-25T12:53:55.336Z,23.87
2023-01-25T13:04:03.524Z,18.87
2023-01-25T13:14:36.081Z,22.87
2023-01-25T13:25:03.715Z,24.40
2023-01-25T13:35:28.523Z,21.77
2023-01-25T13:45:32.925Z,21.93
2023-01-25T13:55:40.806Z,18.50
2023-01-25T14:05:50.072Z,23.13
2023-01-25T14:16:10.659Z,29.57
2023-01-25T14:26:26.481Z,29.50
2023-01-25T14:36:31.370Z,22.43
2023-01-25T14:46:35.577Z,26.13
2023-01-25T14:56:46.737Z,28.63
2023-01-25T15:06:54.312Z,23.63
2023-01-25T15:16:56.845Z,28.90
2023-01-25T15:26:59.160Z,35.20
2023-01-25T15:37:03.506Z,30.93
2023-01-25T15:47:05.783Z,32.83
2023-01-25T15:57:23.979Z,33.90
2023-01-25T16:07:28.873Z,34.83
2023-01-25T16:17:31.055Z,32.07
2023-01-25T16:27:36.028Z,38.27
2023-01-25T16:37:38.365Z,35.63
2023-01-25T16:47:40.498Z,39.57
2023-01-25T16:57:43.778Z,36.33
2023-01-25T17:07:53.199Z,37.93
2023-01-25T17:17:55.431Z,40.80
2023-01-25T17:27:57.763Z,38.67
2023-01-25T17:37:59.953Z,36.90
2023-01-25T17:48:02.324Z,37.33
2023-01-25T17:58:05.452Z,39.27
2023-01-25T18:08:07.731Z,45.83
2023-01-25T18:18:10.366Z,37.00
2023-01-25T18:28:13.562Z,33.07
2023-01-25T18:38:17.182Z,34.20
2023-01-25T18:48:30.104Z,36.90
2023-01-25T18:58:33.319Z,41.77
2023-01-25T19:08:39.513Z,41.27
2023-01-25T19:18:48.366Z,46.53
2023-01-25T19:28:51.372Z,41.53
2023-01-25T19:38:53.903Z,43.40
2023-01-25T19:48:56.639Z,41.77
2023-01-25T19:58:59.157Z,34.63
2023-01-25T20:09:02.679Z,52.07
2023-01-25T20:19:04.878Z,39.97
2023-01-25T20:29:07.718Z,42.03
2023-01-25T20:39:12.630Z,42.17
2023-01-25T20:49:17.014Z,28.93
2023-01-25T20:59:19.312Z,35.93
2023-01-25T21:09:26.122Z,39.93
2023-01-25T21:19:28.299Z,35.60
2023-01-25T21:29:30.390Z,38.87
2023-01-25T21:39:32.581Z,40.60
2023-01-25T21:49:55.728Z,34.53
2023-01-25T21:59:59.113Z,44.03
2023-01-25T22:10:02.273Z,43.70
2023-01-25T22:20:04.687Z,49.00
2023-01-25T22:30:10.656Z,43.93
2023-01-25T22:40:13.461Z,44.07
2023-01-25T22:50:16.084Z,42.63
2023-01-25T23:00:18.578Z,44.77
2023-01-25T23:10:20.685Z,43.30
2023-01-25T23:20:23.900Z,41.97
2023-01-25T23:30:27.049Z,41.73
2023-01-25T23:40:29.356Z,40.23
2023-01-25T23:50:32.463Z,48.00
